Groveland, Florida
Current Conditions -  °F | °C
As of 7:53 AM on Sunday 21 Dec 2014 (Local Time) from KLEE Reporting Station
Moderate Fog Moderate Fog  
Wind Chill: 61°   Ceiling: 200
Heat Index: 61°   Visibility: 0.25mi
Dew Point: 60°   Wind: 5mph
Humidity: 97%   Direction: 40°NE
Pressure: 30.1"   Gusts: NA
Location:  28.56°N, 81.85°W
Report Text: KLEE 211253Z 04004KT 1/4SM FG VV002 16/16 A3010 RMK AO2 SLP193 T01610156
Loading
Personal Weather Stations






























Interactive Weather Map New forecast layout! Learn more

10-Day Weather Forecast

Advertisements
Track Severe Weather on mobile